Time;durP1;ratioP1;P1;durP2;ratioP2;P2;SDS_P1;SDS_P2;PMS_P1;PMS_P2;Temp;Humidity;BMP_temperature;BMP_pressure;BME280_temperature;BME280_humidity;BME280_pressure;Samples;Min_cycle;Max_cycle;Signal;HPM_P1;HPM_P2
2021/09/30 00:02:00;;;;;;;20.23;12.52;;;9.00;99.90;;;;;;5030246;28;20028;-84
2021/09/30 00:04:26;;;;;;;27.02;14.00;;;9.00;99.90;;;;;;5031498;28;20029;-84
2021/09/30 00:06:51;;;;;;;25.13;14.27;;;9.00;99.90;;;;;;5031781;28;20021;-83
2021/09/30 00:09:17;;;;;;;18.73;13.73;;;9.00;99.90;;;;;;5030545;28;20033;-84
2021/09/30 00:11:48;;;;;;;27.08;15.07;;;9.00;99.90;;;;;;5030150;28;20037;-83
2021/09/30 00:14:28;;;;;;;24.55;16.38;;;9.00;99.90;;;;;;5031306;28;20040;-84
2021/09/30 00:36:12;;;;;;;46.45;17.77;;;9.40;99.90;;;;;;5031546;28;20022;-83
2021/09/30 00:41:37;;;;;;;28.50;17.13;;;9.50;99.90;;;;;;5031663;28;20033;-85
2021/09/30 00:46:57;;;;;;;30.23;14.90;;;9.60;99.90;;;;;;5031745;28;20048;-86
2021/09/30 00:49:32;;;;;;;26.63;14.95;;;9.70;99.90;;;;;;5031380;28;20021;-85
2021/09/30 02:26:27;;;;;;;56.00;5.85;;;11.10;99.90;;;;;;5014576;28;20497;-89
2021/09/30 02:29:09;;;;;;;42.38;5.40;;;11.00;99.90;;;;;;5033498;28;20075;-85
2021/09/30 02:59:12;;;;;;;74.38;7.35;;;11.50;99.90;;;;;;5032989;28;20394;-88
2021/09/30 03:01:41;;;;;;;48.95;6.82;;;11.50;99.90;;;;;;5033238;28;20030;-85
2021/09/30 03:04:09;;;;;;;61.90;7.72;;;11.50;99.90;;;;;;5031513;28;20049;-89
2021/09/30 03:06:35;;;;;;;66.28;8.13;;;11.50;99.90;;;;;;5033012;28;20397;-90
2021/09/30 03:09:05;;;;;;;79.32;8.18;;;11.50;99.90;;;;;;5032625;28;20044;-88
2021/09/30 03:11:38;;;;;;;73.07;8.18;;;11.50;99.90;;;;;;5032947;28;20075;-87
2021/09/30 03:14:04;;;;;;;71.17;7.37;;;11.40;99.90;;;;;;5031227;28;20608;-89
2021/09/30 03:19:04;;;;;;;67.72;7.70;;;11.50;99.90;;;;;;5032533;28;20025;-87
2021/09/30 03:24:16;;;;;;;75.85;9.05;;;11.40;99.90;;;;;;5032756;28;20236;-88
2021/09/30 03:26:45;;;;;;;70.07;6.35;;;11.50;99.90;;;;;;5032429;28;20385;-86
2021/09/30 03:29:12;;;;;;;50.88;6.93;;;11.50;99.90;;;;;;5032038;28;20089;-84
2021/09/30 03:31:38;;;;;;;47.22;6.68;;;11.40;99.90;;;;;;5030933;28;20041;-87
2021/09/30 03:34:05;;;;;;;43.38;5.57;;;11.30;99.90;;;;;;5031925;28;20092;-87
2021/09/30 03:36:31;;;;;;;41.38;5.65;;;11.30;99.90;;;;;;5032166;28;20486;-87
2021/09/30 03:38:57;;;;;;;50.97;6.78;;;11.30;99.90;;;;;;5031919;28;20099;-87
2021/09/30 03:41:23;;;;;;;59.47;6.43;;;11.30;99.90;;;;;;5032105;28;20115;-88
2021/09/30 03:43:48;;;;;;;69.65;7.97;;;11.30;99.90;;;;;;5031816;28;20045;-88
2021/09/30 03:46:14;;;;;;;81.35;9.23;;;11.40;99.90;;;;;;5030817;28;20028;-87
2021/09/30 03:48:40;;;;;;;65.05;7.28;;;11.40;99.90;;;;;;5030433;28;20025;-88
2021/09/30 03:51:17;;;;;;;55.88;6.88;;;11.40;99.90;;;;;;5030771;28;20022;-85
2021/09/30 03:53:57;;;;;;;69.72;6.32;;;11.40;99.90;;;;;;5030508;28;20444;-87
2021/09/30 03:56:35;;;;;;;48.13;5.85;;;11.40;99.90;;;;;;5030625;28;20400;-86
2021/09/30 03:59:33;;;;;;;41.63;5.22;;;11.30;99.90;;;;;;5030074;28;20029;-85
2021/09/30 04:01:59;;;;;;;55.03;6.25;;;11.20;99.90;;;;;;5029741;28;20120;-86
2021/09/30 04:04:27;;;;;;;45.75;6.10;;;11.10;99.90;;;;;;5030457;28;20464;-87
2021/09/30 04:06:56;;;;;;;51.53;6.43;;;11.10;99.90;;;;;;5030534;28;20148;-87
2021/09/30 04:09:29;;;;;;;56.20;5.20;;;11.10;99.90;;;;;;5030116;28;20078;-87
2021/09/30 04:12:00;;;;;;;59.72;5.97;;;11.10;99.90;;;;;;5030632;28;20053;-85
2021/09/30 04:14:27;;;;;;;45.80;6.60;;;11.20;99.90;;;;;;5031439;28;20021;-88
2021/09/30 04:16:53;;;;;;;39.90;4.88;;;11.20;99.90;;;;;;5030441;28;20025;-85
2021/09/30 04:19:20;;;;;;;59.90;5.88;;;11.10;99.90;;;;;;5030227;28;20026;-86
2021/09/30 04:21:47;;;;;;;53.05;7.32;;;11.20;99.90;;;;;;5030325;28;20049;-87
2021/09/30 04:24:14;;;;;;;57.13;5.97;;;11.20;99.90;;;;;;5030145;28;20021;-85
2021/09/30 04:26:40;;;;;;;56.33;6.03;;;11.30;99.90;;;;;;5031764;28;20018;-85
2021/09/30 04:29:06;;;;;;;63.83;6.80;;;11.30;99.90;;;;;;5031620;28;20030;-87
2021/09/30 04:31:31;;;;;;;58.88;7.85;;;11.30;99.90;;;;;;5030122;28;20072;-87
2021/09/30 04:33:57;;;;;;;44.08;4.93;;;11.30;99.90;;;;;;5031324;28;20025;-85
2021/09/30 04:36:23;;;;;;;29.77;5.05;;;11.20;99.90;;;;;;5030114;28;20034;-86
2021/09/30 04:38:50;;;;;;;41.65;6.65;;;11.10;99.90;;;;;;5030186;28;20025;-85
2021/09/30 04:41:16;;;;;;;38.10;4.57;;;11.00;99.90;;;;;;5031519;28;20437;-87
2021/09/30 04:43:45;;;;;;;40.67;6.00;;;11.00;99.90;;;;;;5033799;28;20029;-85
2021/09/30 04:46:12;;;;;;;52.15;5.88;;;11.00;99.90;;;;;;5035337;28;20026;-86
2021/09/30 04:48:37;;;;;;;46.47;6.45;;;11.10;99.90;;;;;;5035291;28;20021;-86
2021/09/30 04:51:03;;;;;;;38.13;5.28;;;11.10;99.90;;;;;;5033360;28;20029;-86
2021/09/30 04:53:28;;;;;;;64.20;6.10;;;11.20;99.90;;;;;;5035167;28;20025;-85
2021/09/30 04:55:54;;;;;;;58.83;7.03;;;11.20;99.90;;;;;;5034881;28;20524;-85
2021/09/30 04:58:19;;;;;;;57.25;7.50;;;11.20;99.90;;;;;;5035109;28;20088;-87
2021/09/30 05:00:45;;;;;;;47.53;6.68;;;11.10;99.90;;;;;;5034822;28;20470;-85
2021/09/30 05:03:10;;;;;;;49.80;4.97;;;11.10;99.90;;;;;;5035038;28;20382;-88
2021/09/30 05:05:36;;;;;;;59.33;6.65;;;11.10;99.90;;;;;;5033414;28;20063;-86
2021/09/30 05:08:02;;;;;;;50.85;8.25;;;11.10;99.90;;;;;;5034927;28;20037;-87
2021/09/30 05:10:34;;;;;;;44.47;5.40;;;11.10;99.90;;;;;;5033730;28;20124;-86
2021/09/30 05:13:05;;;;;;;45.38;5.57;;;11.00;99.90;;;;;;5034629;28;20026;-88
2021/09/30 05:15:32;;;;;;;51.67;6.25;;;11.00;99.90;;;;;;5033440;28;20021;-86
2021/09/30 05:17:58;;;;;;;48.28;6.00;;;10.90;99.90;;;;;;5033526;28;20052;-86
2021/09/30 05:20:24;;;;;;;42.22;5.28;;;10.80;99.90;;;;;;5034678;28;20036;-86
2021/09/30 05:22:50;;;;;;;53.58;6.07;;;10.80;99.90;;;;;;5033215;28;20025;-87
2021/09/30 05:25:16;;;;;;;42.35;6.20;;;10.80;99.90;;;;;;5033249;28;20029;-88
2021/09/30 05:27:41;;;;;;;47.50;6.10;;;10.70;99.90;;;;;;5033310;28;20048;-88
2021/09/30 05:30:07;;;;;;;43.78;5.10;;;10.70;99.90;;;;;;5034629;28;20044;-88
2021/09/30 05:32:33;;;;;;;60.15;6.22;;;10.70;99.90;;;;;;5033045;28;20641;-87
2021/09/30 05:34:59;;;;;;;44.65;5.45;;;10.70;99.90;;;;;;5032743;28;20033;-87
2021/09/30 05:37:25;;;;;;;50.80;6.85;;;10.60;99.90;;;;;;5034547;28;20025;-89
2021/09/30 05:39:50;;;;;;;63.42;5.97;;;10.60;99.90;;;;;;5033075;28;20029;-87
2021/09/30 05:42:17;;;;;;;58.38;7.65;;;10.60;99.90;;;;;;5034075;28;20072;-87
2021/09/30 05:44:42;;;;;;;45.28;5.72;;;10.70;99.90;;;;;;5033990;28;20142;-88
2021/09/30 05:47:08;;;;;;;49.03;5.03;;;10.60;99.90;;;;;;5034364;28;20022;-86
2021/09/30 05:49:33;;;;;;;55.00;6.50;;;10.70;99.90;;;;;;5034149;28;20033;-86
2021/09/30 05:51:59;;;;;;;55.80;6.22;;;10.70;99.90;;;;;;5032982;28;20021;-89
2021/09/30 05:54:25;;;;;;;52.85;5.80;;;10.70;99.90;;;;;;5032304;28;20067;-88
2021/09/30 05:56:50;;;;;;;49.20;5.95;;;10.70;99.90;;;;;;5032599;28;20398;-87
2021/09/30 05:59:21;;;;;;;48.25;6.72;;;10.70;99.90;;;;;;5034029;28;20483;-88
2021/09/30 06:12:37;;;;;;;46.58;5.72;;;10.70;99.90;;;;;;5033803;28;20028;-87
2021/09/30 06:15:06;;;;;;;29.58;4.45;;;10.70;99.90;;;;;;5032718;28;20029;-86
2021/09/30 06:17:32;;;;;;;42.53;4.80;;;10.70;99.90;;;;;;5032235;28;20663;-85
2021/09/30 06:19:57;;;;;;;34.88;4.18;;;10.60;99.90;;;;;;5033460;28;20053;-84
2021/09/30 06:22:23;;;;;;;58.63;5.20;;;10.50;99.90;;;;;;5033395;28;20045;-86
2021/09/30 06:24:49;;;;;;;41.00;5.35;;;10.60;99.90;;;;;;5031411;28;20060;-85
2021/09/30 06:27:14;;;;;;;34.17;5.13;;;10.50;99.90;;;;;;5032122;28;20037;-85
2021/09/30 06:29:40;;;;;;;36.20;5.40;;;10.50;99.90;;;;;;5031977;28;20029;-87
2021/09/30 06:32:06;;;;;;;41.75;4.25;;;10.60;99.90;;;;;;5032106;28;20125;-86
2021/09/30 06:34:31;;;;;;;44.38;4.82;;;10.60;99.90;;;;;;5032519;28;20508;-84
2021/09/30 06:36:57;;;;;;;33.75;4.32;;;10.60;99.90;;;;;;5031906;28;20036;-86
2021/09/30 06:39:22;;;;;;;41.65;6.38;;;10.60;99.90;;;;;;5033192;28;20551;-85
2021/09/30 06:41:48;;;;;;;41.90;4.68;;;10.60;99.90;;;;;;5033018;28;20068;-84
2021/09/30 06:44:13;;;;;;;43.25;4.57;;;10.60;99.90;;;;;;5031090;28;20397;-86
2021/09/30 06:46:39;;;;;;;48.33;4.82;;;10.70;99.90;;;;;;5033034;28;20164;-85
2021/09/30 06:49:04;;;;;;;30.75;4.35;;;10.70;99.90;;;;;;5032846;28;20030;-88
2021/09/30 06:51:32;;;;;;;47.90;5.78;;;10.70;99.90;;;;;;5031540;28;20048;-85
2021/09/30 06:53:57;;;;;;;45.70;5.45;;;10.70;99.90;;;;;;5032565;28;20521;-85
2021/09/30 06:56:23;;;;;;;48.03;4.93;;;10.80;99.90;;;;;;5032416;28;20148;-84
2021/09/30 06:58:49;;;;;;;36.97;5.38;;;10.80;99.90;;;;;;5032788;28;20083;-84
2021/09/30 07:01:17;;;;;;;48.97;5.88;;;10.90;99.90;;;;;;5031473;28;20565;-84
2021/09/30 07:03:43;;;;;;;45.28;4.75;;;10.90;99.90;;;;;;5032352;28;20017;-84
2021/09/30 07:06:11;;;;;;;52.13;7.38;;;11.00;99.90;;;;;;5032020;28;20025;-84
2021/09/30 07:08:36;;;;;;;33.65;4.95;;;11.00;99.90;;;;;;5031286;28;20507;-86
2021/09/30 07:11:02;;;;;;;33.30;3.78;;;11.00;99.90;;;;;;5032507;28;20029;-84
2021/09/30 07:13:28;;;;;;;39.85;5.40;;;11.00;99.90;;;;;;5031192;28;20068;-85
2021/09/30 07:15:54;;;;;;;40.88;4.68;;;11.10;99.90;;;;;;5030627;28;20018;-84
2021/09/30 07:18:20;;;;;;;29.65;4.15;;;11.10;99.90;;;;;;5031183;28;20033;-85
2021/09/30 07:20:47;;;;;;;38.78;4.32;;;11.10;99.90;;;;;;5031016;28;20515;-84
2021/09/30 07:23:13;;;;;;;37.03;5.15;;;11.10;99.90;;;;;;5030960;28;20067;-84
2021/09/30 07:25:39;;;;;;;32.95;4.80;;;11.20;99.90;;;;;;5031663;28;20112;-85
2021/09/30 07:28:05;;;;;;;33.97;5.10;;;11.10;99.90;;;;;;5032323;28;20029;-86
2021/09/30 07:30:32;;;;;;;34.50;5.25;;;11.10;99.90;;;;;;5030932;28;20474;-85
2021/09/30 07:32:58;;;;;;;32.95;4.22;;;11.10;99.90;;;;;;5032179;28;20562;-85
2021/09/30 07:35:26;;;;;;;20.42;3.42;;;11.10;99.90;;;;;;5030553;28;20078;-83
2021/09/30 07:37:55;;;;;;;25.55;3.00;;;11.20;99.90;;;;;;5030522;28;20065;-85
2021/09/30 07:40:22;;;;;;;24.80;4.10;;;11.20;99.90;;;;;;5030861;28;20029;-87
2021/09/30 07:42:48;;;;;;;23.77;4.20;;;11.20;99.90;;;;;;5030600;28;20513;-86
2021/09/30 07:45:14;;;;;;;26.17;3.90;;;11.20;99.90;;;;;;5030317;28;20041;-86
2021/09/30 07:47:40;;;;;;;34.45;4.15;;;11.30;99.90;;;;;;5031659;28;20029;-84
2021/09/30 07:50:06;;;;;;;38.63;5.20;;;11.30;99.90;;;;;;5030403;28;20021;-85
2021/09/30 07:52:32;;;;;;;34.00;3.53;;;11.30;99.90;;;;;;5030484;28;20025;-84
2021/09/30 07:55:00;;;;;;;37.67;5.18;;;11.40;99.90;;;;;;5030272;28;20029;-84
2021/09/30 07:57:26;;;;;;;33.33;4.55;;;11.40;99.90;;;;;;5030390;28;20025;-84
2021/09/30 07:59:52;;;;;;;37.50;4.07;;;11.50;99.90;;;;;;5031794;28;20083;-85
2021/09/30 08:02:18;;;;;;;19.92;3.92;;;11.50;99.90;;;;;;5030540;28;20176;-85
2021/09/30 08:04:44;;;;;;;37.85;5.55;;;11.50;99.90;;;;;;5031469;28;20026;-83
2021/09/30 08:07:09;;;;;;;34.83;4.32;;;11.50;99.90;;;;;;5031260;28;20037;-83
2021/09/30 08:09:35;;;;;;;101.13;37.15;;;11.60;99.90;;;;;;5031451;28;20029;-83
2021/09/30 08:12:02;;;;;;;20.60;5.80;;;11.60;99.90;;;;;;5031616;28;20033;-84
2021/09/30 08:14:27;;;;;;;25.02;3.47;;;11.70;99.90;;;;;;5030099;28;20029;-83
2021/09/30 08:16:53;;;;;;;39.30;12.43;;;11.90;99.90;;;;;;5031831;28;20607;-82
2021/09/30 08:19:19;;;;;;;32.58;5.75;;;12.10;99.90;;;;;;5035680;28;20025;-83
2021/09/30 08:21:45;;;;;;;30.95;5.15;;;12.20;99.90;;;;;;5035159;28;20037;-83
2021/09/30 08:24:15;;;;;;;22.58;4.63;;;12.30;99.90;;;;;;5035536;28;20037;-83
2021/09/30 08:26:43;;;;;;;21.35;5.45;;;12.40;99.90;;;;;;5035626;28;20492;-84
2021/09/30 08:29:09;;;;;;;24.15;4.78;;;12.50;99.90;;;;;;5034370;28;20029;-83
2021/09/30 08:31:34;;;;;;;36.30;4.38;;;12.60;99.90;;;;;;5033998;28;20030;-83
2021/09/30 08:34:00;;;;;;;42.08;4.53;;;12.70;99.90;;;;;;5035028;28;20037;-85
2021/09/30 08:36:26;;;;;;;32.13;4.10;;;12.90;99.90;;;;;;5034203;28;20482;-83
2021/09/30 08:38:52;;;;;;;22.55;3.90;;;13.30;99.90;;;;;;5035453;28;20025;-82
2021/09/30 08:41:22;;;;;;;20.67;4.00;;;13.60;99.90;;;;;;5031296;28;20103;-81
2021/09/30 08:43:49;;;;;;;20.52;3.40;;;13.60;99.90;;;;;;5033780;28;20148;-82
2021/09/30 08:46:15;;;;;;;23.83;3.72;;;13.50;99.90;;;;;;5035193;28;20046;-82
2021/09/30 08:48:41;;;;;;;13.15;2.53;;;13.40;99.90;;;;;;5034938;28;20057;-81
2021/09/30 08:51:09;;;;;;;20.55;3.42;;;13.30;99.90;;;;;;5035334;28;20525;-82
2021/09/30 08:53:35;;;;;;;16.77;3.85;;;13.30;99.90;;;;;;5035404;28;20104;-83
2021/09/30 08:56:02;;;;;;;25.55;3.35;;;13.20;99.90;;;;;;5033220;28;20487;-84
2021/09/30 08:58:28;;;;;;;23.35;3.65;;;13.20;99.90;;;;;;5033879;28;20401;-85
2021/09/30 09:00:58;;;;;;;28.70;5.07;;;13.20;99.90;;;;;;5028003;28;20025;-87
2021/09/30 09:03:38;;;;;;;33.22;6.05;;;13.40;99.90;;;;;;5033456;28;20026;-86
2021/09/30 09:06:05;;;;;;;14.50;3.60;;;13.90;99.90;;;;;;5034518;28;20028;-84
2021/09/30 09:08:31;;;;;;;23.10;2.65;;;14.30;99.90;;;;;;5034733;28;20021;-85
2021/09/30 09:10:59;;;;;;;19.70;2.38;;;14.70;99.90;;;;;;5039049;28;20030;-84
2021/09/30 09:13:25;;;;;;;20.35;3.13;;;14.50;99.90;;;;;;5054592;28;20029;-84
2021/09/30 09:15:54;;;;;;;22.27;3.67;;;14.20;99.90;;;;;;5051243;28;20504;-86
2021/09/30 09:18:23;;;;;;;20.00;2.65;;;14.10;99.90;;;;;;5032825;28;20021;-85
2021/09/30 09:21:09;;;;;;;28.42;3.25;;;14.30;99.90;;;;;;5033370;28;20496;-84
2021/09/30 09:23:41;;;;;;;14.82;2.88;;;14.50;99.90;;;;;;5033339;28;20029;-86
2021/09/30 09:26:15;;;;;;;24.83;2.90;;;14.80;99.90;;;;;;5032751;28;20478;-87
2021/09/30 09:29:02;;;;;;;21.08;2.88;;;14.70;99.90;;;;;;5032801;28;20029;-86
2021/09/30 09:31:36;;;;;;;12.75;2.60;;;14.50;99.90;;;;;;5041513;28;20102;-88
2021/09/30 09:34:22;;;;;;;25.75;3.70;;;14.70;99.90;;;;;;5054141;28;20489;-88
2021/09/30 09:36:50;;;;;;;33.60;3.50;;;14.80;99.90;;;;;;5048066;28;20030;-87
2021/09/30 09:39:36;;;;;;;19.48;4.10;;;14.90;99.90;;;;;;5033200;28;20706;-90
2021/09/30 09:42:17;;;;;;;17.02;2.47;;;15.00;99.90;;;;;;5033910;28;20052;-86
2021/09/30 09:45:11;;;;;;;30.92;2.67;;;15.10;99.90;;;;;;5033493;28;20037;-86
2021/09/30 09:47:37;;;;;;;;;;;15.20;99.90;;;;;;5033611;28;20525;-86
2021/09/30 09:50:24;;;;;;;28.35;3.50;;;15.10;99.90;;;;;;5033845;28;20328;-86
2021/09/30 09:52:56;;;;;;;19.08;2.88;;;14.90;99.90;;;;;;5033613;28;20060;-88
2021/09/30 09:55:39;;;;;;;22.88;3.65;;;14.60;99.90;;;;;;5020795;28;20076;-86
2021/09/30 09:58:13;;;;;;;15.77;2.28;;;14.60;99.90;;;;;;5021326;28;20026;-86
2021/09/30 10:00:49;;;;;;;30.60;11.00;;;14.40;99.90;;;;;;5032479;28;20026;-88
2021/09/30 10:03:17;;;;;;;21.33;3.50;;;14.30;99.90;;;;;;5037091;28;20106;-86
2021/09/30 10:05:44;;;;;;;22.63;2.60;;;14.40;99.90;;;;;;5052044;28;20231;-86
2021/09/30 10:08:10;;;;;;;20.30;3.30;;;14.40;99.90;;;;;;5045394;28;20095;-84
2021/09/30 10:10:37;;;;;;;15.27;3.22;;;14.50;99.90;;;;;;5032117;28;20561;-85
2021/09/30 10:13:04;;;;;;;18.38;2.38;;;14.50;99.90;;;;;;5032257;28;20037;-87
2021/09/30 10:15:29;;;;;;;17.90;2.75;;;14.50;99.90;;;;;;5033419;28;20040;-84
2021/09/30 10:17:55;;;;;;;17.15;2.20;;;14.40;99.90;;;;;;5031870;28;20021;-87
2021/09/30 10:20:21;;;;;;;23.75;3.10;;;14.20;99.90;;;;;;5033562;28;20068;-85
2021/09/30 10:22:51;;;;;;;17.17;2.80;;;14.20;99.90;;;;;;5032261;28;20405;-85
2021/09/30 10:25:17;;;;;;;20.02;2.25;;;14.40;99.90;;;;;;5031912;28;20026;-85
2021/09/30 10:27:44;;;;;;;16.77;2.58;;;14.70;99.90;;;;;;5031972;28;20029;-86
2021/09/30 10:30:31;;;;;;;33.03;3.55;;;14.90;99.90;;;;;;5031500;28;20079;-84
2021/09/30 10:32:58;;;;;;;34.88;3.15;;;14.80;99.90;;;;;;5033173;28;20037;-84
2021/09/30 10:35:36;;;;;;;11.45;2.95;;;14.70;99.90;;;;;;5032728;28;20037;-84
2021/09/30 10:38:20;;;;;;;10.02;2.20;;;14.70;99.90;;;;;;5032894;28;20022;-82
2021/09/30 10:41:07;;;;;;;29.08;2.97;;;14.60;99.90;;;;;;5030649;28;20025;-91
2021/09/30 10:43:42;;;;;;;17.83;3.17;;;14.60;99.90;;;;;;5032964;28;20102;-85
2021/09/30 10:46:30;;;;;;;9.35;2.33;;;14.40;99.90;;;;;;5032026;28;20025;-88
2021/09/30 10:48:56;;;;;;;16.75;2.10;;;14.60;99.90;;;;;;5031352;28;20033;-89
2021/09/30 10:51:23;;;;;;;18.10;2.58;;;15.00;99.90;;;;;;5032944;28;20405;-87
2021/09/30 10:53:48;;;;;;;9.32;1.77;;;15.10;99.90;;;;;;5031427;28;20033;-87
2021/09/30 10:56:41;;;;;;;17.95;2.85;;;15.30;99.90;;;;;;5035865;28;20540;-88
2021/09/30 10:59:13;;;;;;;10.45;1.52;;;15.30;99.90;;;;;;5034440;28;20102;-88
2021/09/30 11:01:47;;;;;;;13.38;1.60;;;15.50;99.90;;;;;;5032229;28;20497;-87
2021/09/30 11:04:15;;;;;;;12.60;2.30;;;15.60;99.90;;;;;;5032588;28;20075;-89
2021/09/30 11:06:41;;;;;;;8.85;1.67;;;15.40;99.90;;;;;;5030213;28;20556;-88
2021/09/30 11:09:21;;;;;;;17.83;2.38;;;15.30;99.90;;;;;;5031144;28;20026;-87
2021/09/30 11:12:10;;;;;;;17.77;2.55;;;15.30;99.90;;;;;;5032423;28;20037;-90
2021/09/30 11:14:52;;;;;;;29.38;2.75;;;15.30;99.90;;;;;;5032380;28;20060;-89
2021/09/30 11:17:41;;;;;;;18.40;2.55;;;15.50;99.90;;;;;;5032778;28;20072;-86
2021/09/30 11:20:32;;;;;;;18.25;2.83;;;15.50;99.90;;;;;;5032001;28;20549;-86
2021/09/30 11:22:58;;;;;;;21.55;2.92;;;15.40;99.90;;;;;;5032382;28;20040;-87
2021/09/30 11:26:02;;;;;;;18.92;3.30;;;15.70;99.90;;;;;;5032185;28;20573;-87
2021/09/30 11:28:29;;;;;;;25.67;4.18;;;16.10;99.90;;;;;;5030783;28;20037;-87
2021/09/30 11:31:27;;;;;;;17.35;2.70;;;15.70;99.90;;;;;;5031779;28;20051;-92
2021/09/30 11:33:57;;;;;;;24.45;3.95;;;15.30;99.90;;;;;;5031359;28;20033;-87
2021/09/30 11:36:35;;;;;;;19.98;2.90;;;15.10;99.90;;;;;;5032806;28;20026;-88
2021/09/30 11:39:02;;;;;;;13.10;2.95;;;14.90;99.90;;;;;;5030963;28;20026;-88
2021/09/30 11:41:32;;;;;;;17.83;2.85;;;14.70;99.90;;;;;;5030988;28;20036;-89
2021/09/30 11:43:58;;;;;;;17.65;3.83;;;14.60;99.90;;;;;;5030745;28;20506;-90
2021/09/30 11:46:31;;;;;;;23.90;3.35;;;14.70;99.90;;;;;;5031931;28;20060;-89
2021/09/30 11:48:58;;;;;;;28.57;3.20;;;14.90;99.90;;;;;;5031923;28;20040;-92
2021/09/30 11:51:34;;;;;;;18.00;3.60;;;15.20;99.90;;;;;;5030749;28;20512;-88
2021/09/30 11:54:01;;;;;;;21.58;3.33;;;14.70;99.90;;;;;;5031280;28;20029;-89
2021/09/30 11:56:28;;;;;;;26.63;3.33;;;14.50;99.90;;;;;;5031948;28;20113;-88
2021/09/30 11:59:02;;;;;;;14.38;2.35;;;14.60;99.90;;;;;;5031988;28;20390;-87
2021/09/30 12:01:45;;;;;;;17.10;2.92;;;14.90;99.90;;;;;;5031658;28;20017;-89
2021/09/30 12:04:43;;;;;;;23.58;3.13;;;15.10;99.90;;;;;;5031848;28;20061;-89
2021/09/30 12:07:28;;;;;;;14.38;2.03;;;15.00;99.90;;;;;;5031083;28;20040;-87
2021/09/30 12:10:00;;;;;;;27.27;3.17;;;14.80;99.90;;;;;;5031961;28;20029;-87
2021/09/30 12:12:28;;;;;;;30.30;3.50;;;14.70;99.90;;;;;;5030212;28;20389;-88
2021/09/30 12:14:57;;;;;;;25.48;3.30;;;15.20;99.90;;;;;;5030139;28;20048;-87
2021/09/30 12:17:23;;;;;;;22.40;3.40;;;15.30;99.90;;;;;;5031962;28;20381;-87
2021/09/30 12:19:53;;;;;;;17.50;3.17;;;15.90;99.90;;;;;;5031852;28;20036;-87
2021/09/30 12:22:24;;;;;;;25.27;2.97;;;16.60;99.90;;;;;;5031577;28;20021;-88
2021/09/30 12:24:52;;;;;;;21.38;2.72;;;16.10;99.90;;;;;;5030408;28;20026;-88
2021/09/30 12:27:19;;;;;;;21.38;3.90;;;15.50;99.90;;;;;;5030599;28;20030;-88
2021/09/30 12:29:47;;;;;;;23.88;3.38;;;15.00;99.90;;;;;;5030802;28;20026;-89
2021/09/30 12:32:20;;;;;;;14.20;2.90;;;15.30;99.90;;;;;;5032173;28;20112;-89
2021/09/30 12:34:57;;;;;;;22.48;3.45;;;16.20;99.90;;;;;;5030023;28;20041;-87
2021/09/30 12:37:27;;;;;;;16.05;2.72;;;16.70;99.90;;;;;;5032299;28;20027;-85
2021/09/30 12:40:26;;;;;;;22.05;3.40;;;16.90;99.90;;;;;;5029960;28;20036;-85
2021/09/30 12:43:14;;;;;;;27.38;3.13;;;17.20;99.90;;;;;;5030039;28;20041;-86
2021/09/30 12:46:02;;;;;;;18.98;2.75;;;17.40;99.90;;;;;;5011247;28;20030;-84
2021/09/30 12:48:30;;;;;;;28.83;3.67;;;17.60;99.90;;;;;;5011506;28;20038;-85
2021/09/30 12:51:10;;;;;;;25.05;2.88;;;17.90;99.90;;;;;;5011661;28;20061;-83
2021/09/30 12:53:46;;;;;;;24.77;3.85;;;18.10;99.90;;;;;;5012835;28;20061;-84
2021/09/30 12:56:14;;;;;;;21.27;2.65;;;17.80;99.90;;;;;;5030003;28;20029;-82
2021/09/30 12:58:45;;;;;;;16.10;3.20;;;17.50;99.90;;;;;;5029868;28;20585;-83
2021/09/30 13:01:19;;;;;;;22.25;3.58;;;17.20;99.90;;;;;;5031354;28;20021;-84
2021/09/30 13:04:11;;;;;;;18.80;3.42;;;17.20;99.90;;;;;;5033405;28;20040;-83
2021/09/30 13:06:41;;;;;;;14.52;3.08;;;17.30;99.90;;;;;;5032277;28;20040;-84
2021/09/30 13:09:20;;;;;;;14.30;2.47;;;17.80;99.90;;;;;;5034655;28;20033;-84
2021/09/30 13:11:50;;;;;;;24.27;3.47;;;17.70;99.90;;;;;;5034886;28;20053;-83
2021/09/30 13:14:22;;;;;;;13.63;3.13;;;17.50;99.90;;;;;;5032994;28;20056;-83
2021/09/30 13:16:51;;;;;;;23.95;3.30;;;17.40;99.90;;;;;;5034750;28;20021;-85
2021/09/30 13:19:18;;;;;;;19.48;3.33;;;17.20;99.90;;;;;;5033297;28;20025;-85
2021/09/30 13:22:01;;;;;;;14.75;2.33;;;17.20;99.90;;;;;;5033373;28;20045;-83
2021/09/30 13:24:27;;;;;;;10.38;2.50;;;17.30;99.90;;;;;;5034178;28;20025;-85
2021/09/30 13:26:53;;;;;;;21.60;2.40;;;17.10;99.90;;;;;;5033460;28;20035;-88
2021/09/30 13:29:19;;;;;;;10.48;1.75;;;17.10;99.90;;;;;;5033616;28;20022;-85
2021/09/30 13:31:52;;;;;;;16.45;2.58;;;17.10;99.90;;;;;;5033516;28;20036;-87
2021/09/30 13:34:27;;;;;;;17.90;3.22;;;17.30;99.90;;;;;;5033660;28;20040;-92
2021/09/30 13:36:58;;;;;;;10.05;2.33;;;17.10;99.90;;;;;;5033451;28;20037;-86
2021/09/30 13:39:24;;;;;;;13.13;2.42;;;16.70;99.90;;;;;;5033402;28;20456;-87
2021/09/30 13:41:49;;;;;;;16.05;1.75;;;16.20;99.90;;;;;;5033763;28;20026;-85
2021/09/30 13:44:15;;;;;;;11.05;2.20;;;16.10;99.90;;;;;;5032783;28;20120;-90
2021/09/30 13:46:41;;;;;;;18.85;2.17;;;16.30;99.90;;;;;;5033995;28;20091;-82
2021/09/30 13:49:06;;;;;;;12.75;2.45;;;16.30;99.90;;;;;;5034219;28;20490;-84
2021/09/30 13:51:32;;;;;;;24.08;2.83;;;16.50;99.90;;;;;;5032990;28;20022;-84
2021/09/30 13:53:59;;;;;;;13.93;2.67;;;16.10;99.90;;;;;;5032550;28;20036;-82
2021/09/30 13:56:26;;;;;;;13.35;2.42;;;15.80;99.90;;;;;;5032599;28;20029;-84
2021/09/30 13:58:52;;;;;;;17.17;2.58;;;15.60;99.90;;;;;;5032852;28;20056;-81
2021/09/30 14:01:18;;;;;;;12.25;2.67;;;15.60;99.90;;;;;;5034185;28;20053;-88
2021/09/30 14:03:44;;;;;;;16.10;3.22;;;15.50;99.90;;;;;;5032822;28;20044;-87
2021/09/30 14:06:17;;;;;;;15.55;2.95;;;15.50;99.90;;;;;;5034322;28;20402;-87
2021/09/30 14:08:44;;;;;;;12.73;1.67;;;15.30;99.90;;;;;;5031465;28;20410;-86
2021/09/30 14:11:11;;;;;;;13.73;2.55;;;15.40;99.90;;;;;;5032311;28;20033;-86
2021/09/30 14:13:37;;;;;;;17.10;1.88;;;15.60;99.90;;;;;;5032016;28;20022;-85
2021/09/30 14:16:17;;;;;;;15.35;2.03;;;16.00;99.90;;;;;;5033346;28;20030;-89
2021/09/30 14:18:43;;;;;;;12.80;2.25;;;16.50;99.90;;;;;;5032887;28;20457;-88
2021/09/30 14:21:09;;;;;;;22.98;3.53;;;17.00;99.90;;;;;;5033347;28;20025;-86
2021/09/30 14:24:35;;;;;;;;;;;;;;;;;;;;;
2021/09/30 14:27:04;;;;;;;16.25;2.78;;;17.00;99.90;;;;;;5028162;28;20041;-88
2021/09/30 14:29:30;;;;;;;19.95;3.60;;;17.10;99.90;;;;;;5033683;28;20025;-88
2021/09/30 14:32:14;;;;;;;13.55;2.65;;;16.80;99.90;;;;;;5029912;28;20079;-88
2021/09/30 14:34:42;;;;;;;;;;;17.20;99.90;;;;;;5032034;28;20101;-87
2021/09/30 14:37:09;;;;;;;12.65;2.30;;;17.10;99.90;;;;;;5032187;28;19909;-87
2021/09/30 14:39:47;;;;;;;15.32;2.53;;;16.80;99.90;;;;;;5032146;28;20445;-88
2021/09/30 14:42:51;;;;;;;15.88;2.00;;;16.40;99.90;;;;;;5033261;28;20449;-88
2021/09/30 14:45:17;;;;;;;20.92;3.17;;;16.10;99.90;;;;;;5032292;28;20030;-86
2021/09/30 14:47:43;;;;;;;20.08;2.67;;;15.90;99.90;;;;;;5030748;28;20112;-81
2021/09/30 14:50:11;;;;;;;15.85;2.53;;;15.70;99.90;;;;;;5032027;28;20025;-82
2021/09/30 14:52:36;;;;;;;25.02;2.50;;;15.50;99.90;;;;;;5031789;28;20045;-83
2021/09/30 14:55:03;;;;;;;21.70;3.22;;;15.30;99.90;;;;;;5032640;28;20029;-82
2021/09/30 14:57:29;;;;;;;12.70;2.85;;;14.90;99.90;;;;;;5032710;28;20037;-81
2021/09/30 14:59:54;;;;;;;12.48;2.97;;;13.70;99.90;;;;;;5031321;28;20079;-81
2021/09/30 15:02:20;;;;;;;18.02;2.90;;;12.60;99.90;;;;;;5032782;28;20572;-81
2021/09/30 15:04:46;;;;;;;20.92;2.38;;;12.00;99.90;;;;;;5032406;28;20018;-82
2021/09/30 15:07:11;;;;;;;24.10;3.50;;;11.70;99.90;;;;;;5032661;28;20029;-80
2021/09/30 15:09:37;;;;;;;22.52;2.60;;;11.60;99.90;;;;;;5030891;28;20474;-80
2021/09/30 15:12:02;;;;;;;17.85;2.60;;;11.60;99.90;;;;;;5031927;28;20482;-79
2021/09/30 15:14:29;;;;;;;27.40;3.60;;;11.40;99.90;;;;;;5031062;28;20371;-80
2021/09/30 15:17:01;;;;;;;20.83;2.85;;;11.40;99.90;;;;;;5031143;28;20115;-81
2021/09/30 15:19:37;;;;;;;24.40;3.47;;;11.40;99.90;;;;;;5031350;28;20168;-80
2021/09/30 15:22:03;;;;;;;33.78;3.35;;;11.50;99.90;;;;;;5032430;28;20533;-81
2021/09/30 15:24:29;;;;;;;26.77;4.50;;;11.60;99.90;;;;;;5030442;28;20064;-81
2021/09/30 15:26:54;;;;;;;25.40;3.92;;;11.80;99.90;;;;;;5030839;28;20398;-80
2021/09/30 15:29:20;;;;;;;18.52;3.33;;;11.80;99.90;;;;;;5032290;28;20026;-81
2021/09/30 15:31:47;;;;;;;19.02;2.97;;;11.90;99.90;;;;;;5031987;28;20025;-81
2021/09/30 15:34:16;;;;;;;18.52;2.65;;;11.80;99.90;;;;;;5030424;28;20371;-81
2021/09/30 15:36:42;;;;;;;23.13;2.83;;;11.90;99.90;;;;;;5031847;28;20030;-81